CheckWX is a tool to help pilots better visualize weather data.  It is not intended as a substitute for an official pre-flight weather briefing.

00:56:43 UTC

FMNN METAR
Fascene Airport
Nosy Be, Madagascar
Current

10 hours ago

FMNN 261500Z 21002KT 9999 BKN020CB 28/27 Q1010
Observed
Mar-26 @ 15:00 UTC
Wind
  • 210° at 2 KTS
Visibility
10,000+ meters
Flight Rules
MVFR
Cloud Levels
  • Broken at 2,000' AGL
Temperature
28°C / 82°F
Dewpoint
27°C / 81°F
Humidity
94%
Altimeter
29.82" Hg
Pressure
1009.92 hPa
Previous

11 hours ago

FMNN 261400Z 25004KT 9999 BKN020CB 31/26 Q1010
Observed
Mar-26 @ 14:00 UTC
Wind
  • 250° at 4 KTS
Visibility
10,000+ meters
Flight Rules
MVFR
Cloud Levels
  • Broken at 2,000' AGL
Temperature
31°C / 88°F
Dewpoint
26°C / 79°F
Humidity
75%
Altimeter
29.82" Hg
Pressure
1009.92 hPa
Previous

12 hours ago

FMNN 261300Z 27002KT 9999 BKN020CB 31/27 Q1010
Observed
Mar-26 @ 13:00 UTC
Wind
  • 270° at 2 KTS
Visibility
10,000+ meters
Flight Rules
MVFR
Cloud Levels
  • Broken at 2,000' AGL
Temperature
31°C / 88°F
Dewpoint
27°C / 81°F
Humidity
79%
Altimeter
29.82" Hg
Pressure
1009.92 hPa